Time;durP1;ratioP1;P1;durP2;ratioP2;P2;SDS_P1;SDS_P2;PMS_P1;PMS_P2;Temp;Humidity;BMP_temperature;BMP_pressure;BME280_temperature;BME280_humidity;BME280_pressure;Samples;Min_cycle;Max_cycle;Signal;HPM_P1;HPM_P2
2021/04/03 00:00:19;;;;;;;9.95;4.90;;;6.70;99.90;;;;;;5083253;28;20408;-64
2021/04/03 00:02:46;;;;;;;12.55;5.63;;;6.70;99.90;;;;;;5084465;28;20501;-65
2021/04/03 00:05:12;;;;;;;11.77;5.38;;;6.60;99.90;;;;;;5082316;28;20414;-60
2021/04/03 00:07:39;;;;;;;10.20;5.40;;;6.70;99.90;;;;;;5078467;28;20856;-65
2021/04/03 00:10:29;;;;;;;10.48;5.88;;;6.80;99.90;;;;;;5087874;28;20485;-65
2021/04/03 00:12:56;;;;;;;12.95;5.40;;;6.70;99.90;;;;;;5089520;28;20463;-57
2021/04/03 00:15:22;;;;;;;12.00;5.00;;;7.30;99.90;;;;;;5089069;28;20419;-65
2021/04/03 00:17:48;;;;;;;11.80;5.65;;;6.70;99.90;;;;;;5088934;28;20447;-64
2021/04/03 00:20:15;;;;;;;14.17;5.83;;;6.80;99.90;;;;;;5088944;28;20389;-64
2021/04/03 00:22:43;;;;;;;17.38;6.47;;;6.80;99.90;;;;;;5085518;28;20480;-64
2021/04/03 00:25:11;;;;;;;12.27;5.90;;;6.80;99.90;;;;;;5086358;28;20452;-64
2021/04/03 00:27:37;;;;;;;15.20;5.60;;;6.90;99.90;;;;;;5087855;28;20394;-65
2021/04/03 00:30:17;;;;;;;12.73;5.60;;;7.00;99.90;;;;;;5077094;28;20749;-64
2021/04/03 00:32:52;;;;;;;14.48;5.40;;;6.90;99.90;;;;;;5087171;28;20485;-64
2021/04/03 00:35:20;;;;;;;11.65;5.40;;;6.90;99.90;;;;;;5087459;28;20397;-62
2021/04/03 00:37:46;;;;;;;11.27;5.30;;;6.70;99.90;;;;;;5082206;28;20392;-63
2021/04/03 00:40:14;;;;;;;11.95;5.80;;;6.80;99.90;;;;;;5085769;28;20933;-63
2021/04/03 00:42:41;;;;;;;13.63;5.33;;;6.80;99.90;;;;;;5090153;28;20515;-62
2021/04/03 00:45:08;;;;;;;12.48;5.60;;;6.90;99.90;;;;;;5080480;28;20413;-64
2021/04/03 00:47:34;;;;;;;13.13;5.80;;;6.90;99.90;;;;;;5089953;28;20424;-63
2021/04/03 00:49:59;;;;;;;11.15;5.75;;;6.90;99.90;;;;;;5087591;28;20397;-56
2021/04/03 00:52:25;;;;;;;11.70;4.80;;;6.90;99.90;;;;;;5081285;28;20789;-64
2021/04/03 00:54:51;;;;;;;14.37;6.17;;;6.90;99.90;;;;;;5088585;28;20485;-63
2021/04/03 00:57:17;;;;;;;12.87;5.50;;;6.80;99.90;;;;;;5087617;28;20390;-64
2021/04/03 00:59:43;;;;;;;11.70;5.87;;;6.80;99.90;;;;;;5083281;28;20457;-62
2021/04/03 01:02:09;;;;;;;11.73;4.97;;;6.70;99.90;;;;;;5087634;28;20463;-64
2021/04/03 01:04:36;;;;;;;11.60;5.30;;;6.70;99.90;;;;;;5078168;28;20411;-64
2021/04/03 01:07:02;;;;;;;10.82;5.57;;;6.80;99.90;;;;;;5071589;28;20483;-63
2021/04/03 01:09:28;;;;;;;12.80;5.90;;;6.80;99.90;;;;;;5089055;28;20426;-63
2021/04/03 01:12:26;;;;;;;12.10;5.40;;;6.70;99.90;;;;;;5070942;28;21050;-64
2021/04/03 01:15:13;;;;;;;13.95;5.80;;;6.70;99.90;;;;;;5029976;28;20404;-64
2021/04/03 01:17:52;;;;;;;12.27;6.10;;;6.80;99.90;;;;;;5051601;28;20781;-64
2021/04/03 01:20:55;;;;;;;13.80;5.85;;;6.90;99.90;;;;;;5065723;28;20574;-65
2021/04/03 01:24:02;;;;;;;12.20;5.55;;;7.00;99.90;;;;;;5068651;28;20975;-63
2021/04/03 01:26:36;;;;;;;13.05;5.50;;;7.00;99.90;;;;;;5045253;28;20424;-63
2021/04/03 01:29:29;;;;;;;13.35;5.80;;;6.90;99.90;;;;;;5085987;28;20394;-63
2021/04/03 01:32:01;;;;;;;14.50;5.70;;;6.90;99.90;;;;;;5089467;28;20383;-63
2021/04/03 01:34:30;;;;;;;13.25;6.10;;;6.10;99.90;;;;;;5081390;28;20415;-63
2021/04/03 01:37:03;;;;;;;14.55;5.93;;;7.00;99.90;;;;;;5089612;28;20473;-64
2021/04/03 01:39:32;;;;;;;11.45;5.65;;;7.00;99.90;;;;;;5084507;28;20511;-61
2021/04/03 01:42:04;;;;;;;13.77;6.22;;;6.90;99.90;;;;;;5089222;28;20456;-56
2021/04/03 01:44:45;;;;;;;12.93;5.50;;;6.90;99.90;;;;;;5072523;28;20981;-64
2021/04/03 01:47:11;;;;;;;12.20;4.93;;;6.90;99.90;;;;;;5092504;28;20386;-65
2021/04/03 01:49:38;;;;;;;12.20;5.60;;;6.80;99.90;;;;;;5087422;28;20470;-65
2021/04/03 01:52:04;;;;;;;12.38;5.50;;;6.80;99.90;;;;;;5063811;28;20722;-64
2021/04/03 01:54:31;;;;;;;15.60;5.50;;;6.80;99.90;;;;;;5089107;28;20439;-64
2021/04/03 01:56:57;;;;;;;8.75;4.55;;;6.90;99.90;;;;;;5093411;28;20397;-63
2021/04/03 01:59:24;;;;;;;11.35;5.60;;;6.70;99.90;;;;;;5088385;28;20425;-63
2021/04/03 02:01:53;;;;;;;11.68;5.40;;;6.60;99.90;;;;;;5091512;28;20413;-63
2021/04/03 02:04:19;;;;;;;12.90;5.00;;;6.60;99.90;;;;;;5082853;28;20486;-63
2021/04/03 02:06:47;;;;;;;9.93;4.35;;;6.60;99.90;;;;;;5092470;28;20397;-64
2021/04/03 02:09:15;;;;;;;10.45;4.50;;;6.60;99.90;;;;;;5075671;28;20915;-61
2021/04/03 02:11:48;;;;;;;10.05;4.50;;;6.60;99.90;;;;;;5090872;28;20409;-63
2021/04/03 02:14:16;;;;;;;11.48;5.50;;;6.60;99.90;;;;;;5085195;28;20398;-63
2021/04/03 02:16:43;;;;;;;11.48;5.03;;;6.60;99.90;;;;;;5079501;28;20480;-61
2021/04/03 02:19:10;;;;;;;10.60;4.70;;;6.70;99.90;;;;;;5078113;28;20390;-63
2021/04/03 02:21:38;;;;;;;12.75;4.47;;;6.60;99.90;;;;;;5092139;28;20402;-63
2021/04/03 02:24:05;;;;;;;12.20;4.00;;;6.50;99.90;;;;;;5071686;28;20380;-63
2021/04/03 02:26:32;;;;;;;12.35;4.68;;;6.60;99.90;;;;;;5072378;28;20387;-63
2021/04/03 02:28:58;;;;;;;9.23;4.18;;;6.50;99.90;;;;;;5091011;28;20488;-56
2021/04/03 02:31:25;;;;;;;13.83;5.00;;;6.50;99.90;;;;;;5069612;28;20394;-63
2021/04/03 02:33:52;;;;;;;12.98;4.30;;;6.50;99.90;;;;;;5092584;28;20379;-63
2021/04/03 02:36:18;;;;;;;10.85;4.43;;;6.40;99.90;;;;;;5058621;28;20756;-62
2021/04/03 02:38:46;;;;;;;9.57;4.43;;;6.40;99.90;;;;;;5075575;28;20432;-64
2021/04/03 02:41:13;;;;;;;10.93;4.13;;;6.40;99.90;;;;;;5091165;28;20408;-66
2021/04/03 02:44:00;;;;;;;10.57;4.28;;;6.50;99.90;;;;;;5087994;28;20391;-61
2021/04/03 02:46:30;;;;;;;10.15;4.50;;;6.40;99.90;;;;;;5080111;28;20394;-64
2021/04/03 02:49:01;;;;;;;8.93;4.22;;;6.30;99.90;;;;;;5078894;28;20466;-63
2021/04/03 02:51:36;;;;;;;12.50;4.50;;;6.00;99.90;;;;;;5074120;28;20393;-64
2021/04/03 02:54:06;;;;;;;10.00;4.83;;;5.90;99.90;;;;;;5054026;28;20400;-56
2021/04/03 02:56:32;;;;;;;10.03;4.53;;;5.80;99.90;;;;;;5071520;28;20482;-63
2021/04/03 02:58:59;;;;;;;11.83;4.40;;;5.70;99.90;;;;;;5088703;28;20394;-62
2021/04/03 03:01:26;;;;;;;12.23;5.70;;;5.50;99.90;;;;;;5075244;28;20418;-64
2021/04/03 03:03:52;;;;;;;10.20;4.60;;;5.40;99.90;;;;;;5071610;28;20722;-64
2021/04/03 03:06:19;;;;;;;13.50;4.97;;;6.70;99.90;;;;;;5084726;28;20436;-64
2021/04/03 03:08:46;;;;;;;10.30;4.30;;;5.20;99.90;;;;;;5090313;28;20394;-64
2021/04/03 03:11:15;;;;;;;9.98;4.85;;;5.20;99.90;;;;;;5090806;28;20382;-64
2021/04/03 03:13:42;;;;;;;12.70;5.22;;;6.10;99.90;;;;;;5077513;28;20435;-64
2021/04/03 03:16:12;;;;;;;10.77;4.65;;;5.20;99.90;;;;;;5059274;28;20382;-63
2021/04/03 03:18:40;;;;;;;11.07;4.78;;;5.20;99.90;;;;;;5090133;28;20453;-64
2021/04/03 03:21:08;;;;;;;10.98;4.60;;;6.20;99.90;;;;;;5090824;28;20389;-65
2021/04/03 03:23:34;;;;;;;8.90;4.30;;;5.20;99.90;;;;;;5070594;28;20759;-62
2021/04/03 03:26:00;;;;;;;10.57;4.50;;;5.10;99.90;;;;;;5070576;28;20814;-56
2021/04/03 03:28:26;;;;;;;9.82;4.53;;;5.10;99.90;;;;;;5088125;28;20481;-63
2021/04/03 03:30:53;;;;;;;12.07;4.68;;;5.10;99.90;;;;;;5077874;28;20406;-64
2021/04/03 03:33:20;;;;;;;11.95;4.78;;;5.10;99.90;;;;;;5052573;28;21101;-63
2021/04/03 03:35:45;;;;;;;13.85;4.80;;;5.10;99.90;;;;;;5071764;28;20904;-62
2021/04/03 03:38:12;;;;;;;12.93;5.00;;;5.10;99.90;;;;;;5070496;28;20376;-64
2021/04/03 03:40:38;;;;;;;11.48;4.40;;;5.10;99.90;;;;;;5071531;28;20493;-63
2021/04/03 03:43:05;;;;;;;9.80;4.65;;;5.10;99.90;;;;;;5080156;28;20406;-62
2021/04/03 03:45:31;;;;;;;10.20;4.60;;;5.20;99.90;;;;;;5061009;28;20887;-63
2021/04/03 03:47:57;;;;;;;11.25;5.95;;;5.00;99.90;;;;;;5074130;28;20399;-64
2021/04/03 03:50:22;;;;;;;14.77;4.83;;;4.90;99.90;;;;;;5083168;28;20405;-63
2021/04/03 03:52:48;;;;;;;9.55;4.30;;;4.90;99.90;;;;;;5082335;28;20421;-64
2021/04/03 03:55:14;;;;;;;9.85;4.30;;;4.90;99.90;;;;;;5077789;28;20449;-64
2021/04/03 03:57:40;;;;;;;10.05;4.40;;;4.90;99.90;;;;;;5078237;28;20876;-64
2021/04/03 04:00:07;;;;;;;14.00;5.10;;;4.90;99.90;;;;;;5080501;28;20383;-60
2021/04/03 04:02:32;;;;;;;9.07;4.50;;;4.90;99.90;;;;;;5070234;28;20410;-63
2021/04/03 04:04:58;;;;;;;10.82;4.93;;;5.40;99.90;;;;;;5090211;28;20361;-63
2021/04/03 04:07:24;;;;;;;10.75;4.55;;;5.10;99.90;;;;;;5087426;28;20946;-64
2021/04/03 04:09:50;;;;;;;13.05;5.63;;;5.10;99.90;;;;;;5086318;28;20398;-64
2021/04/03 04:12:16;;;;;;;15.48;5.00;;;5.20;99.90;;;;;;5082726;28;20396;-64
2021/04/03 04:14:42;;;;;;;11.00;4.90;;;5.30;99.90;;;;;;5083216;28;20815;-66
2021/04/03 04:17:07;;;;;;;11.33;5.43;;;5.30;99.90;;;;;;5065895;28;20450;-62
2021/04/03 04:19:33;;;;;;;10.50;4.90;;;6.00;99.90;;;;;;5085107;28;20443;-64
2021/04/03 04:22:01;;;;;;;12.10;5.70;;;5.20;99.90;;;;;;5089111;28;20413;-64
2021/04/03 04:24:28;;;;;;;12.00;4.95;;;5.30;99.90;;;;;;5079985;28;20418;-62
2021/04/03 04:26:53;;;;;;;10.70;5.10;;;5.40;99.90;;;;;;5087924;28;20401;-64
2021/04/03 04:29:19;;;;;;;11.83;5.20;;;5.40;99.90;;;;;;5088245;28;20446;-65
2021/04/03 04:31:45;;;;;;;14.10;5.28;;;5.40;99.90;;;;;;5086404;28;20408;-64
2021/04/03 04:34:10;;;;;;;10.95;4.60;;;5.40;99.90;;;;;;5086438;28;20656;-64
2021/04/03 04:36:36;;;;;;;11.07;5.30;;;5.40;99.90;;;;;;5090087;28;20402;-65
2021/04/03 04:39:02;;;;;;;11.15;5.05;;;5.50;99.90;;;;;;5065895;28;20404;-57
2021/04/03 04:41:28;;;;;;;13.52;4.90;;;5.40;99.90;;;;;;5085797;28;20405;-64
2021/04/03 04:43:54;;;;;;;11.45;4.75;;;5.50;99.90;;;;;;5087729;28;20771;-63
2021/04/03 04:46:19;;;;;;;12.77;5.40;;;5.50;99.90;;;;;;5088539;28;20473;-64
2021/04/03 04:48:45;;;;;;;13.88;5.70;;;5.50;99.90;;;;;;5086695;28;20436;-64
2021/04/03 04:51:11;;;;;;;13.73;5.93;;;5.50;99.90;;;;;;5089233;28;20866;-62
2021/04/03 04:53:36;;;;;;;15.80;5.70;;;7.00;99.90;;;;;;5062106;28;20744;-65
2021/04/03 04:56:02;;;;;;;15.25;4.72;;;5.50;99.90;;;;;;5082957;28;20759;-57
2021/04/03 04:58:28;;;;;;;11.20;5.07;;;5.50;99.90;;;;;;5085836;28;20732;-64
2021/04/03 05:00:53;;;;;;;12.03;5.17;;;5.60;99.90;;;;;;5087339;28;20493;-63
2021/04/03 05:03:19;;;;;;;12.80;4.97;;;5.50;99.90;;;;;;5086893;28;20720;-64
2021/04/03 05:05:44;;;;;;;12.07;5.40;;;5.40;99.90;;;;;;5090086;28;20382;-65
2021/04/03 05:08:10;;;;;;;11.82;4.68;;;5.40;99.90;;;;;;5066964;28;20410;-64
2021/04/03 05:10:36;;;;;;;13.17;5.20;;;5.40;99.90;;;;;;5086160;28;20480;-59
2021/04/03 05:13:03;;;;;;;12.60;5.45;;;5.40;99.90;;;;;;5085188;28;20488;-56
2021/04/03 05:15:29;;;;;;;9.18;4.57;;;5.30;99.90;;;;;;5082272;28;20399;-64
2021/04/03 05:17:55;;;;;;;12.75;5.00;;;5.70;99.90;;;;;;5082828;28;20463;-65
2021/04/03 05:20:20;;;;;;;10.95;5.03;;;5.30;99.90;;;;;;5085653;28;20396;-65
2021/04/03 05:22:47;;;;;;;14.60;5.13;;;5.20;99.90;;;;;;5081953;28;20942;-65
2021/04/03 05:25:13;;;;;;;14.40;6.10;;;5.30;99.90;;;;;;5090142;28;20394;-63
2021/04/03 05:27:40;;;;;;;12.15;4.93;;;5.30;99.90;;;;;;5094028;28;20381;-65
2021/04/03 05:30:06;;;;;;;10.93;5.30;;;5.60;99.90;;;;;;5071897;28;20398;-57
2021/04/03 05:32:32;;;;;;;11.48;4.90;;;5.60;99.90;;;;;;5083788;28;20414;-65
2021/04/03 05:34:57;;;;;;;14.05;5.32;;;5.60;99.90;;;;;;5081218;28;20859;-64
2021/04/03 05:37:23;;;;;;;14.30;5.57;;;5.70;99.90;;;;;;5087038;28;20396;-66
2021/04/03 05:39:49;;;;;;;13.85;5.00;;;5.80;99.90;;;;;;5082696;28;20514;-65
2021/04/03 05:42:18;;;;;;;11.83;4.97;;;5.90;99.90;;;;;;5066214;28;20929;-61
2021/04/03 05:44:44;;;;;;;11.40;5.00;;;5.90;99.90;;;;;;5082821;28;20438;-65
2021/04/03 05:47:11;;;;;;;11.10;4.88;;;6.20;99.90;;;;;;5080761;28;20478;-64
2021/04/03 05:49:36;;;;;;;12.88;5.30;;;6.50;99.90;;;;;;5070037;28;20410;-49
2021/04/03 05:52:05;;;;;;;15.82;4.80;;;7.50;99.90;;;;;;5083775;28;20427;-50
2021/04/03 05:54:32;;;;;;;13.15;4.55;;;7.20;99.90;;;;;;5082700;28;20458;-49
2021/04/03 05:56:58;;;;;;;11.57;4.60;;;7.40;99.90;;;;;;5080462;28;20547;-49
2021/04/03 05:59:24;;;;;;;12.82;4.55;;;7.50;99.90;;;;;;5088881;28;20778;-50
2021/04/03 06:01:49;;;;;;;9.30;4.15;;;8.20;99.90;;;;;;5077960;28;20440;-52
2021/04/03 06:04:15;;;;;;;9.50;4.30;;;8.90;99.90;;;;;;5076683;28;20393;-51
2021/04/03 06:06:42;;;;;;;12.07;4.80;;;9.30;99.90;;;;;;5085597;28;20393;-50
2021/04/03 06:09:08;;;;;;;13.37;4.10;;;9.30;99.90;;;;;;5077716;28;20398;-54
2021/04/03 06:11:47;;;;;;;11.70;4.20;;;9.90;99.90;;;;;;5073635;28;20419;-52
2021/04/03 06:14:13;;;;;;;11.00;3.90;;;11.00;95.30;;;;;;5085143;28;20834;-51
2021/04/03 06:16:43;;;;;;;8.98;3.88;;;11.90;91.20;;;;;;5085983;28;20391;-52
2021/04/03 06:19:13;;;;;;;7.60;3.55;;;12.50;87.00;;;;;;5085505;28;20427;-55
2021/04/03 06:21:52;;;;;;;10.30;4.40;;;12.80;82.70;;;;;;5087712;28;20406;-53
2021/04/03 06:24:31;;;;;;;8.10;3.53;;;13.60;79.70;;;;;;5086533;28;20430;-54
2021/04/03 06:27:07;;;;;;;9.70;3.85;;;14.00;74.00;;;;;;5075525;28;20422;-53
2021/04/03 06:29:49;;;;;;;10.40;3.58;;;14.20;72.00;;;;;;5086506;28;20443;-55
2021/04/03 06:32:20;;;;;;;7.72;3.65;;;14.50;70.40;;;;;;5089568;28;20867;-51
2021/04/03 06:34:47;;;;;;;7.43;3.88;;;15.60;67.10;;;;;;5064360;28;20525;-52
2021/04/03 06:37:13;;;;;;;7.82;3.50;;;16.20;61.50;;;;;;5091156;28;20480;-53
2021/04/03 06:39:54;;;;;;;8.57;3.53;;;15.70;60.40;;;;;;5087317;28;20496;-54
2021/04/03 06:42:39;;;;;;;8.25;3.90;;;14.50;62.70;;;;;;5086958;28;20413;-51
2021/04/03 06:45:34;;;;;;;9.57;3.70;;;13.90;66.30;;;;;;5089213;28;20406;-55
2021/04/03 06:48:04;;;;;;;7.28;3.35;;;14.90;64.90;;;;;;5076243;28;20394;-52
2021/04/03 06:50:45;;;;;;;9.30;3.55;;;15.40;61.30;;;;;;5081830;28;20903;-53
2021/04/03 06:53:18;;;;;;;8.25;3.13;;;15.50;61.70;;;;;;5088510;28;20378;-52
2021/04/03 06:55:48;;;;;;;8.57;3.20;;;15.10;60.30;;;;;;5081513;28;20493;-52
2021/04/03 06:58:14;;;;;;;7.60;2.80;;;14.90;63.00;;;;;;5085810;28;20506;-51
2021/04/03 07:00:41;;;;;;;7.60;3.30;;;14.00;62.60;;;;;;5087036;28;20471;-50
2021/04/03 07:03:17;;;;;;;7.00;3.20;;;14.30;62.40;;;;;;5064986;28;20406;-56
2021/04/03 07:05:45;;;;;;;7.88;3.30;;;14.50;61.90;;;;;;5087267;28;20399;-52
2021/04/03 07:08:11;;;;;;;9.38;3.20;;;14.30;63.00;;;;;;5091170;28;20473;-54
2021/04/03 07:10:39;;;;;;;8.32;3.10;;;14.80;61.40;;;;;;5089133;28;20484;-53
2021/04/03 07:13:07;;;;;;;7.60;2.70;;;15.20;60.50;;;;;;5085670;28;20480;-52
2021/04/03 07:15:33;;;;;;;7.05;2.80;;;15.40;59.20;;;;;;5076482;28;20394;-52
2021/04/03 07:17:58;;;;;;;7.53;2.60;;;15.40;58.80;;;;;;5088679;28;20406;-52
2021/04/03 07:20:29;;;;;;;9.90;2.80;;;15.40;58.70;;;;;;5080520;28;20931;-52
2021/04/03 07:22:59;;;;;;;7.80;3.17;;;15.80;58.50;;;;;;5074936;28;20485;-52
2021/04/03 07:25:39;;;;;;;11.35;3.97;;;16.30;56.60;;;;;;5080109;28;20412;-52
2021/04/03 07:28:05;;;;;;;7.22;2.95;;;16.30;57.00;;;;;;5054328;28;20400;-51
2021/04/03 07:30:40;;;;;;;7.10;2.80;;;15.50;57.30;;;;;;5078419;28;20501;-52
2021/04/03 07:33:16;;;;;;;6.37;2.80;;;15.10;57.80;;;;;;5087660;28;20422;-53
2021/04/03 07:35:45;;;;;;;8.40;2.33;;;14.90;57.90;;;;;;5083447;28;20406;-52
2021/04/03 07:38:14;;;;;;;7.45;2.42;;;14.10;57.40;;;;;;5080258;28;20481;-55
2021/04/03 07:40:46;;;;;;;8.32;2.80;;;12.80;60.60;;;;;;5077336;28;20399;-58
2021/04/03 07:43:33;;;;;;;7.53;2.60;;;12.00;63.60;;;;;;5086009;28;20414;-56
2021/04/03 07:46:08;;;;;;;6.63;2.55;;;11.40;66.60;;;;;;5082689;28;20405;-58
2021/04/03 07:48:53;;;;;;;9.20;2.78;;;11.20;67.10;;;;;;5080623;28;20878;-57
2021/04/03 07:51:25;;;;;;;10.25;2.80;;;10.90;68.10;;;;;;5081258;28;20418;-59
2021/04/03 07:53:56;;;;;;;9.87;2.80;;;11.30;69.40;;;;;;5074699;28;20402;-59
2021/04/03 07:56:51;;;;;;;7.90;3.10;;;11.40;68.90;;;;;;5077099;28;20438;-53
2021/04/03 07:59:17;;;;;;;7.32;2.47;;;12.30;67.90;;;;;;5081764;28;20417;-52
2021/04/03 08:01:47;;;;;;;9.32;3.30;;;12.40;67.10;;;;;;5089840;28;20409;-52
2021/04/03 08:04:13;;;;;;;7.55;2.50;;;11.90;68.20;;;;;;5058408;28;20396;-52
2021/04/03 08:06:42;;;;;;;7.03;2.37;;;12.80;66.30;;;;;;5077827;28;20401;-52
2021/04/03 08:09:14;;;;;;;8.38;2.60;;;12.90;65.20;;;;;;5061179;28;20864;-55
2021/04/03 08:11:42;;;;;;;7.93;2.58;;;13.20;64.60;;;;;;5076448;28;20415;-56
2021/04/03 08:14:10;;;;;;;6.93;2.75;;;13.90;62.60;;;;;;5081128;28;20418;-55
2021/04/03 08:16:37;;;;;;;9.00;3.00;;;12.80;63.10;;;;;;5076198;28;20383;-59
2021/04/03 08:19:02;;;;;;;6.57;2.80;;;13.30;64.90;;;;;;5079357;28;20402;-59
2021/04/03 08:21:39;;;;;;;7.03;2.60;;;15.20;60.20;;;;;;5083075;28;20998;-58
2021/04/03 08:24:06;;;;;;;6.13;2.90;;;15.30;57.90;;;;;;5077211;28;20472;-62
2021/04/03 08:26:37;;;;;;;7.60;2.53;;;16.60;54.70;;;;;;5056567;28;20403;-57
2021/04/03 08:29:03;;;;;;;8.00;3.40;;;16.80;53.70;;;;;;5056492;28;20404;-57
2021/04/03 08:31:31;;;;;;;8.35;3.78;;;17.30;53.30;;;;;;5055793;28;20465;-59
2021/04/03 08:33:59;;;;;;;9.32;3.90;;;17.70;52.50;;;;;;5086898;28;20401;-57
2021/04/03 08:36:32;;;;;;;9.95;3.95;;;17.40;51.40;;;;;;5079637;28;20366;-58
2021/04/03 08:39:04;;;;;;;6.72;2.78;;;16.30;52.70;;;;;;5081692;28;20392;-58
2021/04/03 08:41:29;;;;;;;7.07;2.80;;;16.80;52.80;;;;;;5077112;28;20456;-58
2021/04/03 08:43:56;;;;;;;7.45;2.45;;;17.90;51.20;;;;;;5079085;28;20382;-58
2021/04/03 08:46:24;;;;;;;6.18;2.50;;;17.50;51.40;;;;;;5061862;28;20384;-58
2021/04/03 08:48:59;;;;;;;8.23;2.90;;;17.70;50.70;;;;;;5074918;28;20901;-58
2021/04/03 08:51:26;;;;;;;7.70;2.58;;;17.80;49.60;;;;;;5057303;28;20409;-58
2021/04/03 08:53:54;;;;;;;5.57;2.15;;;18.30;49.10;;;;;;5074218;28;20395;-59
2021/04/03 08:56:45;;;;;;;8.13;3.00;;;19.00;47.40;;;;;;5078629;28;20392;-58
2021/04/03 08:59:16;;;;;;;10.17;3.43;;;19.30;47.50;;;;;;5082820;28;20467;-56
2021/04/03 09:01:50;;;;;;;7.13;2.90;;;18.80;46.20;;;;;;5083041;28;20414;-59
2021/04/03 09:04:15;;;;;;;8.20;3.40;;;19.20;46.60;;;;;;5079027;28;20432;-60
2021/04/03 09:06:57;;;;;;;6.78;2.30;;;18.40;46.20;;;;;;5080244;28;20476;-60
2021/04/03 09:09:25;;;;;;;6.57;2.33;;;18.20;47.90;;;;;;5073396;28;20410;-60
2021/04/03 09:12:07;;;;;;;7.57;2.17;;;19.00;47.10;;;;;;5072707;28;20404;-60
2021/04/03 09:14:37;;;;;;;6.45;2.50;;;18.30;45.80;;;;;;5072295;28;20398;-60
2021/04/03 09:17:26;;;;;;;9.02;3.13;;;17.90;46.60;;;;;;5083734;28;20914;-57
2021/04/03 09:20:03;;;;;;;7.63;3.20;;;17.70;47.60;;;;;;5083447;28;20797;-58
2021/04/03 09:22:39;;;;;;;6.10;2.50;;;19.00;46.30;;;;;;5076963;28;20963;-59
2021/04/03 09:25:08;;;;;;;8.93;2.80;;;19.50;43.80;;;;;;5087220;28;20393;-59
2021/04/03 09:27:35;;;;;;;7.35;2.72;;;19.30;44.30;;;;;;5079854;28;20408;-57
2021/04/03 09:30:10;;;;;;;5.68;2.80;;;19.30;44.50;;;;;;5087491;28;20402;-59
2021/04/03 09:32:46;;;;;;;6.82;2.97;;;20.20;43.60;;;;;;5079615;28;20431;-58
2021/04/03 09:35:23;;;;;;;6.30;3.00;;;21.00;42.50;;;;;;5088550;28;20374;-55
2021/04/03 09:37:57;;;;;;;7.38;2.50;;;20.10;41.60;;;;;;5087659;28;20398;-59
2021/04/03 09:40:33;;;;;;;7.88;3.05;;;19.70;42.60;;;;;;5086635;28;20919;-59
2021/04/03 09:42:59;;;;;;;7.88;2.90;;;20.60;41.50;;;;;;5088897;28;20898;-59
2021/04/03 09:45:25;;;;;;;7.83;3.10;;;21.10;41.20;;;;;;5088169;28;20390;-59
2021/04/03 09:47:50;;;;;;;6.07;2.60;;;20.90;40.50;;;;;;5087088;28;20390;-59
2021/04/03 09:50:16;;;;;;;9.73;3.20;;;21.50;40.30;;;;;;5088340;28;20972;-57
2021/04/03 09:52:42;;;;;;;8.13;2.90;;;21.10;40.40;;;;;;5087620;28;20480;-58
2021/04/03 09:55:08;;;;;;;8.75;2.95;;;21.80;40.00;;;;;;5088116;28;20508;-58
2021/04/03 09:57:33;;;;;;;6.45;2.55;;;22.00;39.40;;;;;;5087896;28;20412;-59
2021/04/03 09:59:59;;;;;;;7.90;3.10;;;21.60;39.20;;;;;;5088165;28;20420;-58
2021/04/03 10:02:25;;;;;;;6.18;2.60;;;21.50;38.80;;;;;;5087639;28;20410;-59
2021/04/03 10:04:50;;;;;;;7.97;2.70;;;21.70;38.20;;;;;;5077179;28;20411;-58
2021/04/03 10:07:16;;;;;;;5.88;2.70;;;21.30;37.90;;;;;;5078739;28;20471;-57
2021/04/03 10:09:41;;;;;;;7.50;3.10;;;19.30;39.40;;;;;;5092495;28;20387;-57
2021/04/03 10:12:08;;;;;;;6.23;2.67;;;18.90;41.20;;;;;;5092841;28;20417;-58
2021/04/03 10:14:33;;;;;;;7.70;2.97;;;18.50;41.70;;;;;;5090205;28;21083;-59
2021/04/03 10:16:59;;;;;;;7.30;2.90;;;18.50;41.50;;;;;;5092026;28;20413;-58
2021/04/03 10:19:24;;;;;;;7.20;3.10;;;18.50;42.10;;;;;;5090165;28;20497;-58
2021/04/03 10:21:50;;;;;;;6.80;3.00;;;18.10;43.00;;;;;;5091988;28;20413;-58
2021/04/03 10:24:16;;;;;;;6.65;2.78;;;18.90;42.60;;;;;;5090930;28;20739;-56
2021/04/03 10:26:41;;;;;;;6.53;3.00;;;19.30;42.40;;;;;;5090915;28;20393;-58
2021/04/03 10:29:07;;;;;;;7.00;2.67;;;19.70;41.00;;;;;;5091998;28;20394;-58
2021/04/03 10:31:33;;;;;;;9.10;2.80;;;18.90;39.90;;;;;;5091202;28;20438;-58
2021/04/03 10:33:59;;;;;;;7.10;2.70;;;18.40;41.20;;;;;;5090861;28;20469;-58
2021/04/03 10:36:24;;;;;;;6.33;2.40;;;19.20;41.40;;;;;;5072964;28;20398;-58
2021/04/03 10:38:50;;;;;;;7.45;3.00;;;19.80;40.00;;;;;;5090545;28;20386;-58
2021/04/03 10:41:16;;;;;;;6.43;2.90;;;18.50;41.10;;;;;;5090949;28;20381;-57
2021/04/03 10:43:42;;;;;;;8.73;3.20;;;18.20;42.70;;;;;;5090053;28;20516;-57
2021/04/03 10:46:08;;;;;;;6.83;2.67;;;16.30;43.70;;;;;;5091520;28;20536;-58
2021/04/03 10:48:37;;;;;;;8.75;3.35;;;15.00;45.50;;;;;;5089590;28;20470;-58
2021/04/03 10:51:05;;;;;;;8.55;2.95;;;14.40;47.40;;;;;;5091785;28;20870;-58
2021/04/03 10:53:31;;;;;;;7.43;2.90;;;14.80;47.20;;;;;;5088738;28;20424;-55
2021/04/03 10:55:56;;;;;;;8.00;3.13;;;14.50;46.80;;;;;;5091320;28;20400;-59
2021/04/03 10:58:22;;;;;;;7.33;3.00;;;13.90;48.10;;;;;;5089224;28;20398;-58
2021/04/03 11:00:47;;;;;;;7.70;2.90;;;13.80;49.40;;;;;;5091732;28;20891;-57
2021/04/03 11:03:13;;;;;;;7.30;2.92;;;14.00;48.50;;;;;;5090900;28;20401;-54
2021/04/03 11:05:39;;;;;;;7.60;2.70;;;13.70;49.20;;;;;;5078577;28;20390;-58
2021/04/03 11:08:04;;;;;;;8.73;2.70;;;14.80;48.10;;;;;;5091019;28;20381;-58
2021/04/03 11:10:31;;;;;;;8.30;3.60;;;16.10;47.00;;;;;;5088762;28;20494;-57
2021/04/03 11:12:58;;;;;;;10.07;2.90;;;16.90;45.50;;;;;;5073043;28;20396;-59
2021/04/03 11:15:24;;;;;;;10.13;3.13;;;16.40;45.90;;;;;;5088842;28;20411;-58
2021/04/03 11:17:51;;;;;;;7.88;2.58;;;16.30;45.80;;;;;;5089855;28;20798;-60
2021/04/03 11:20:18;;;;;;;6.70;2.78;;;16.60;44.80;;;;;;5089156;28;20389;-59
2021/04/03 11:22:44;;;;;;;7.70;2.70;;;16.80;45.10;;;;;;5091316;28;20880;-60
2021/04/03 11:25:09;;;;;;;8.43;2.60;;;17.40;43.50;;;;;;5089802;28;20398;-59
2021/04/03 11:27:35;;;;;;;6.00;2.50;;;16.10;44.10;;;;;;5089535;28;20390;-59
2021/04/03 11:30:13;;;;;;;7.07;2.80;;;15.70;45.60;;;;;;5090334;28;20729;-59
2021/04/03 11:32:43;;;;;;;7.95;2.28;;;15.50;45.60;;;;;;5089912;28;20423;-59
2021/04/03 11:35:09;;;;;;;7.63;2.72;;;15.20;46.00;;;;;;5089839;28;20424;-58
2021/04/03 11:37:36;;;;;;;9.32;2.80;;;14.80;46.00;;;;;;5089995;28;20373;-59
2021/04/03 11:40:05;;;;;;;7.80;2.70;;;14.10;47.10;;;;;;5089438;28;20559;-59
2021/04/03 11:42:31;;;;;;;7.40;2.50;;;13.90;47.40;;;;;;5089987;28;20501;-58
2021/04/03 11:44:56;;;;;;;6.07;2.40;;;14.40;46.80;;;;;;5090714;28;20936;-59
2021/04/03 11:47:23;;;;;;;9.52;3.40;;;14.50;46.40;;;;;;5087873;28;20417;-59
2021/04/03 11:49:58;;;;;;;9.25;2.92;;;15.10;46.80;;;;;;5072100;28;20777;-59
2021/04/03 11:52:25;;;;;;;9.43;2.92;;;15.40;45.60;;;;;;5089615;28;20438;-59
2021/04/03 11:54:51;;;;;;;6.30;2.55;;;15.50;45.00;;;;;;5090464;28;20370;-59
2021/04/03 11:57:17;;;;;;;7.43;2.33;;;14.80;46.00;;;;;;5090015;28;20744;-56
2021/04/03 11:59:45;;;;;;;8.77;3.45;;;14.10;46.30;;;;;;5090412;28;20469;-59
2021/04/03 12:02:11;;;;;;;6.60;2.80;;;13.40;47.60;;;;;;5090703;28;20406;-58
2021/04/03 12:04:36;;;;;;;6.10;2.30;;;13.00;48.20;;;;;;5078227;28;20615;-58
2021/04/03 12:07:02;;;;;;;8.00;2.30;;;13.00;47.10;;;;;;5070426;28;20492;-59
2021/04/03 12:09:28;;;;;;;5.82;2.50;;;13.50;46.10;;;;;;5069290;28;20384;-59
2021/04/03 12:11:53;;;;;;;6.93;2.30;;;13.80;45.20;;;;;;5070031;28;20466;-59
2021/04/03 12:14:20;;;;;;;5.70;2.30;;;14.00;43.50;;;;;;5069675;28;20383;-58
2021/04/03 12:16:45;;;;;;;6.17;2.00;;;13.90;44.00;;;;;;5069703;28;20458;-58
2021/04/03 12:19:11;;;;;;;5.80;1.90;;;14.30;43.90;;;;;;5070045;28;20415;-59
2021/04/03 12:21:37;;;;;;;4.93;2.00;;;14.80;42.70;;;;;;5069277;28;21098;-59
2021/04/03 12:24:03;;;;;;;6.93;2.00;;;14.30;42.90;;;;;;5070132;28;20383;-59
2021/04/03 12:26:28;;;;;;;6.15;2.20;;;14.60;42.20;;;;;;5068557;28;20877;-61
2021/04/03 12:28:54;;;;;;;5.72;2.13;;;14.90;42.00;;;;;;5069044;28;20441;-60
2021/04/03 12:31:19;;;;;;;6.18;2.10;;;14.70;42.80;;;;;;5069149;28;20372;-58
2021/04/03 12:33:45;;;;;;;6.03;1.90;;;14.30;43.40;;;;;;5069843;28;20400;-60
2021/04/03 12:36:11;;;;;;;9.90;3.22;;;14.00;42.30;;;;;;5069094;28;20375;-59
2021/04/03 12:38:36;;;;;;;8.77;3.43;;;13.70;43.00;;;;;;5069464;28;20410;-59
2021/04/03 12:41:03;;;;;;;12.77;6.53;;;13.50;42.80;;;;;;5069479;28;20415;-59
2021/04/03 12:43:29;;;;;;;14.10;8.85;;;13.20;43.40;;;;;;5068825;28;20738;-59
2021/04/03 12:45:56;;;;;;;8.68;2.70;;;13.20;43.80;;;;;;5069587;28;20390;-59
2021/04/03 12:48:22;;;;;;;8.48;2.40;;;13.00;44.10;;;;;;5068748;28;20401;-60
2021/04/03 12:50:48;;;;;;;4.75;2.00;;;13.70;43.50;;;;;;5069768;28;20371;-59
2021/04/03 12:53:15;;;;;;;6.15;2.30;;;14.40;43.20;;;;;;5069464;28;20943;-58
2021/04/03 12:55:41;;;;;;;6.35;1.70;;;14.50;42.90;;;;;;5069217;28;20880;-59